Time;durP1;ratioP1;P1;durP2;ratioP2;P2;SDS_P1;SDS_P2;PMS_P1;PMS_P2;Temp;Humidity;BMP_temperature;BMP_pressure;BME280_temperature;BME280_humidity;BME280_pressure;Samples;Min_cycle;Max_cycle;Signal;HPM_P1;HPM_P2
2021/06/03 00:00:00;;;;;;;4.37;4.07;;;;;;;18.01;62.49;100767.91;5086035;28;20200;-71
2021/06/03 00:02:25;;;;;;;4.10;3.83;;;;;;;18.04;62.49;100769.59;5085027;28;20219;-70
2021/06/03 00:04:53;;;;;;;4.07;3.77;;;;;;;18.00;63.27;100773.28;5085057;28;20231;-71
2021/06/03 00:07:21;;;;;;;4.80;3.97;;;;;;;17.93;62.75;100767.41;5085434;28;20204;-70
2021/06/03 00:09:47;;;;;;;4.50;4.10;;;;;;;17.94;63.21;100770.91;5085131;28;20677;-71
2021/06/03 00:12:13;;;;;;;3.90;3.67;;;;;;;17.90;63.27;100764.91;5084959;28;20211;-70
2021/06/03 00:14:39;;;;;;;4.53;3.90;;;;;;;17.89;63.18;100763.19;5085755;28;20285;-70
2021/06/03 00:17:06;;;;;;;5.77;4.00;;;;;;;17.81;63.58;100760.84;5084891;28;20242;-70
2021/06/03 00:19:32;;;;;;;4.27;3.87;;;;;;;17.81;63.42;100762.63;5085241;28;20701;-71
2021/06/03 00:21:59;;;;;;;4.23;3.93;;;;;;;17.80;63.39;100755.63;5084644;28;20243;-71
2021/06/03 00:24:25;;;;;;;4.80;4.40;;;;;;;17.77;63.35;100756.63;5085079;28;20304;-70
2021/06/03 00:26:51;;;;;;;4.17;3.87;;;;;;;17.75;63.43;100757.63;5085025;28;20294;-71
2021/06/03 00:29:17;;;;;;;3.70;3.40;;;;;;;17.76;63.47;100751.41;5084204;28;20297;-70
2021/06/03 00:31:43;;;;;;;3.90;3.63;;;;;;;17.75;63.38;100747.91;5084895;28;20497;-70
2021/06/03 00:34:09;;;;;;;4.67;4.10;;;;;;;17.73;63.43;100749.78;5084079;28;20255;-71
2021/06/03 00:36:35;;;;;;;4.30;4.00;;;;;;;17.64;64.23;100745.75;5085154;28;20322;-70
2021/06/03 00:39:03;;;;;;;4.17;3.97;;;;;;;17.58;64.23;100740.75;5084170;28;20245;-70
2021/06/03 00:41:29;;;;;;;4.17;3.77;;;;;;;17.54;64.04;100747.09;5084559;28;20242;-71
2021/06/03 00:43:55;;;;;;;5.23;3.80;;;;;;;17.54;64.11;100747.09;5084006;28;20233;-71
2021/06/03 00:46:21;;;;;;;4.47;4.07;;;;;;;17.53;64.38;100742.72;5084054;28;20208;-70
2021/06/03 00:48:47;;;;;;;4.03;3.80;;;;;;;17.50;64.43;100736.72;5085286;28;20219;-71
2021/06/03 00:51:13;;;;;;;4.43;4.13;;;;;;;17.41;64.72;100741.47;5084279;28;20639;-70
2021/06/03 00:53:43;;;;;;;3.93;3.73;;;;;;;17.43;64.39;100747.53;5084502;28;20229;-70
2021/06/03 00:56:11;;;;;;;3.80;3.60;;;;;;;17.39;64.34;100745.94;5084424;28;20234;-70
2021/06/03 00:58:37;;;;;;;4.33;4.03;;;;;;;17.31;64.69;100749.84;5084059;28;20223;-71
2021/06/03 01:01:04;;;;;;;4.80;4.40;;;;;;;17.27;63.26;100746.47;5083886;28;20593;-70
2021/06/03 01:03:31;;;;;;;5.10;4.70;;;;;;;17.25;64.42;100743.03;5082681;28;20749;-70
2021/06/03 01:06:00;;;;;;;4.93;4.53;;;;;;;17.23;64.34;100748.38;5085201;28;20245;-72
2021/06/03 01:08:32;;;;;;;4.83;4.43;;;;;;;17.28;64.45;100753.44;5085242;28;20211;-71
2021/06/03 01:11:01;;;;;;;4.63;4.23;;;;;;;17.33;63.63;100750.63;5083997;28;20234;-71
2021/06/03 01:13:37;;;;;;;4.40;4.00;;;;;;;17.27;64.29;100752.59;5084032;28;20791;-70
2021/06/03 01:16:05;;;;;;;5.60;4.73;;;;;;;17.27;64.49;100755.22;5083093;28;20286;-70
2021/06/03 01:18:32;;;;;;;4.40;4.13;;;;;;;17.16;65.33;100756.59;5084047;28;20247;-70
2021/06/03 01:20:59;;;;;;;4.97;4.67;;;;;;;17.20;64.86;100755.56;5083725;28;20653;-71
2021/06/03 01:23:29;;;;;;;5.33;4.00;;;;;;;17.19;65.12;100754.69;5083810;28;21030;-71
2021/06/03 01:25:56;;;;;;;5.30;3.97;;;;;;;17.10;65.68;100749.78;5084198;28;20227;-71
2021/06/03 01:28:24;;;;;;;4.60;4.23;;;;;;;17.09;65.45;100752.53;5082813;28;20776;-70
2021/06/03 01:30:53;;;;;;;4.60;4.20;;;;;;;17.05;65.44;100749.13;5084229;28;20232;-70
2021/06/03 01:33:21;;;;;;;5.43;4.27;;;;;;;17.00;65.72;100749.31;5082944;28;20247;-70
2021/06/03 01:35:49;;;;;;;4.93;4.47;;;;;;;17.00;65.80;100748.47;5083880;28;20258;-70
2021/06/03 01:38:19;;;;;;;4.60;4.30;;;;;;;16.96;66.03;100749.50;5083628;28;20243;-70
2021/06/03 01:40:48;;;;;;;5.03;4.63;;;;;;;16.93;65.94;100747.00;5083829;28;20236;-70
2021/06/03 01:43:17;;;;;;;4.03;3.73;;;;;;;16.92;65.87;100748.75;5083001;28;20227;-70
2021/06/03 01:45:44;;;;;;;4.90;4.50;;;;;;;16.83;66.58;100752.66;5083632;28;20210;-70
2021/06/03 01:48:13;;;;;;;4.23;3.93;;;;;;;16.82;66.72;100748.28;5083368;28;20204;-70
2021/06/03 01:50:41;;;;;;;4.57;4.20;;;;;;;16.86;66.64;100747.22;5083212;28;20215;-71
2021/06/03 01:53:07;;;;;;;4.23;4.03;;;;;;;16.82;66.54;100744.78;5082341;28;20669;-70
2021/06/03 01:55:34;;;;;;;4.33;3.93;;;;;;;16.80;66.79;100743.97;5082647;28;20290;-70
2021/06/03 01:58:01;;;;;;;4.13;3.83;;;;;;;16.71;67.46;100745.19;5081872;28;20698;-71
2021/06/03 02:00:30;;;;;;;5.80;4.53;;;;;;;16.69;67.69;100744.41;5083150;28;20302;-71
2021/06/03 02:02:56;;;;;;;4.23;3.83;;;;;;;16.70;67.68;100750.53;5082687;28;20231;-70
2021/06/03 02:05:22;;;;;;;4.40;4.10;;;;;;;16.71;67.26;100747.84;5082880;28;20246;-70
2021/06/03 02:07:48;;;;;;;4.40;4.10;;;;;;;16.63;67.51;100757.78;5083509;28;20302;-71
2021/06/03 02:10:16;;;;;;;4.47;4.17;;;;;;;16.62;68.36;100746.41;5082602;28;20284;-70
2021/06/03 02:12:45;;;;;;;4.47;4.27;;;;;;;16.62;68.13;100750.81;5082963;28;20335;-70
2021/06/03 02:15:12;;;;;;;4.33;3.93;;;;;;;16.61;66.99;100757.88;5082543;28;20227;-70
2021/06/03 02:17:45;;;;;;;4.47;4.07;;;;;;;16.57;67.66;100752.75;5082664;28;20260;-71
2021/06/03 02:20:14;;;;;;;4.50;4.10;;;;;;;16.50;68.05;100759.19;5083135;28;20516;-70
2021/06/03 02:22:43;;;;;;;4.57;4.20;;;;;;;16.40;68.46;100759.53;5082343;28;20216;-70
2021/06/03 02:25:09;;;;;;;5.30;4.80;;;;;;;16.25;69.33;100760.13;5083585;28;20211;-70
2021/06/03 02:27:36;;;;;;;5.47;5.07;;;;;;;16.22;68.28;100763.72;5082030;28;20591;-71
2021/06/03 02:30:05;;;;;;;4.80;4.40;;;;;;;16.23;69.09;100762.84;5082899;28;20288;-70
2021/06/03 02:32:34;;;;;;;4.63;4.33;;;;;;;16.18;68.72;100761.28;5082479;28;20212;-70
2021/06/03 02:35:03;;;;;;;4.60;4.30;;;;;;;16.13;68.69;100761.44;5082423;28;21078;-70
2021/06/03 02:37:29;;;;;;;4.50;4.20;;;;;;;16.07;69.13;100759.91;5082293;28;20231;-70
2021/06/03 02:39:58;;;;;;;6.13;4.83;;;;;;;16.05;69.33;100759.09;5082349;28;20231;-71
2021/06/03 02:42:24;;;;;;;4.70;4.40;;;;;;;15.98;69.65;100762.88;5082460;28;20231;-70
2021/06/03 02:44:50;;;;;;;4.30;4.10;;;;;;;16.02;68.94;100763.63;5082070;28;20288;-70
2021/06/03 02:47:16;;;;;;;4.53;4.23;;;;;;;15.94;69.40;100763.03;5081659;28;20207;-71
2021/06/03 02:49:42;;;;;;;5.03;4.43;;;;;;;15.88;69.90;100762.34;5083118;28;20211;-70
2021/06/03 02:52:09;;;;;;;4.80;4.50;;;;;;;15.85;69.66;100769.47;5081348;28;20335;-70
2021/06/03 02:54:35;;;;;;;5.20;4.70;;;;;;;15.80;70.09;100772.28;5082360;28;20227;-70
2021/06/03 02:57:02;;;;;;;4.80;4.40;;;;;;;15.82;69.58;100777.50;5081838;28;20240;-70
2021/06/03 02:59:27;;;;;;;5.07;4.73;;;;;;;15.87;69.43;100775.53;5082024;28;20211;-70
2021/06/03 03:01:54;;;;;;;4.90;4.60;;;;;;;15.80;69.69;100780.19;5082082;28;20298;-70
2021/06/03 03:04:19;;;;;;;4.67;4.37;;;;;;;15.70;70.39;100781.38;5081108;28;20262;-70
2021/06/03 03:06:45;;;;;;;4.57;4.23;;;;;;;15.65;70.74;100784.16;5082626;28;20298;-71
2021/06/03 03:09:12;;;;;;;4.60;4.27;;;;;;;15.70;70.39;100781.38;5081644;28;20912;-70
2021/06/03 03:11:38;;;;;;;4.70;4.40;;;;;;;15.75;70.24;100784.72;5082173;28;20293;-70
2021/06/03 03:14:04;;;;;;;4.50;4.30;;;;;;;15.85;69.83;100787.91;5081289;28;20238;-71
2021/06/03 03:16:30;;;;;;;4.70;4.40;;;;;;;15.79;70.16;100786.34;5081379;28;20605;-70
2021/06/03 03:18:56;;;;;;;5.20;4.80;;;;;;;15.73;70.16;100785.72;5082846;28;20519;-70
2021/06/03 03:21:22;;;;;;;5.30;4.60;;;;;;;15.79;69.87;100791.59;5081786;28;20208;-70
2021/06/03 03:23:47;;;;;;;5.70;4.50;;;;;;;15.78;70.34;100781.16;5081655;28;20224;-70
2021/06/03 03:26:15;;;;;;;4.80;4.40;;;;;;;15.74;69.50;100776.88;5081857;28;20585;-70
2021/06/03 03:28:41;;;;;;;5.53;5.13;;;;;;;15.69;70.33;100779.66;5081741;28;20306;-71
2021/06/03 03:31:07;;;;;;;5.20;4.90;;;;;;;15.74;69.96;100790.03;5081544;28;20462;-71
2021/06/03 03:33:33;;;;;;;5.20;4.80;;;;;;;15.79;69.91;100785.50;5080701;28;20309;-71
2021/06/03 03:35:59;;;;;;;4.50;4.20;;;;;;;15.82;70.25;100793.28;5081991;28;20227;-71
2021/06/03 03:38:24;;;;;;;5.23;4.83;;;;;;;15.64;70.52;100792.13;5082515;28;20620;-70
2021/06/03 03:40:51;;;;;;;5.07;4.77;;;;;;;15.65;70.54;100792.03;5081805;28;20588;-71
2021/06/03 03:43:19;;;;;;;5.27;4.73;;;;;;;15.59;70.79;100796.66;5081557;28;20260;-70
2021/06/03 03:45:45;;;;;;;5.67;5.17;;;;;;;15.52;71.03;100803.94;5081489;28;20214;-70
2021/06/03 03:48:11;;;;;;;6.43;5.30;;;;;;;15.45;71.21;100799.78;5080763;28;20685;-71
2021/06/03 03:50:38;;;;;;;5.20;4.80;;;;;;;15.40;71.63;100799.03;5081884;28;20635;-70
2021/06/03 03:53:05;;;;;;;5.23;4.83;;;;;;;15.47;71.00;100803.22;5080661;28;20311;-70
2021/06/03 03:55:31;;;;;;;5.17;4.77;;;;;;;15.41;71.46;100806.91;5082389;28;20741;-71
2021/06/03 03:57:57;;;;;;;5.23;4.83;;;;;;;15.39;71.80;100807.88;5080571;28;20215;-70
2021/06/03 04:00:27;;;;;;;5.67;5.27;;;;;;;15.40;71.72;100809.56;5081485;28;20558;-70
2021/06/03 04:02:53;;;;;;;5.50;5.00;;;;;;;15.46;71.42;100810.25;5081448;28;20254;-71
2021/06/03 04:05:19;;;;;;;6.03;5.53;;;;;;;15.45;70.89;100808.50;5081389;28;20321;-71
2021/06/03 04:07:46;;;;;;;5.37;4.97;;;;;;;15.43;71.85;100807.69;5081724;28;20249;-70
2021/06/03 04:10:14;;;;;;;5.57;5.20;;;;;;;15.38;71.96;100812.28;5081276;28;20294;-70
2021/06/03 04:12:41;;;;;;;5.80;5.40;;;;;;;15.35;72.21;100819.41;5081295;28;20310;-71
2021/06/03 04:15:09;;;;;;;5.70;5.37;;;;;;;15.29;72.70;100825.72;5080813;28;20253;-71
2021/06/03 04:17:37;;;;;;;5.80;5.33;;;;;;;15.25;73.64;100818.84;5081825;28;21514;-69
2021/06/03 04:20:04;;;;;;;5.20;4.90;;;;;;;15.29;73.14;100823.09;5081543;28;20984;-70
2021/06/03 04:22:31;;;;;;;5.43;5.03;;;;;;;15.36;73.07;100819.34;5082735;28;20244;-70
2021/06/03 04:24:57;;;;;;;5.87;5.47;;;;;;;15.41;72.73;100821.81;5084834;28;20210;-69
2021/06/03 04:27:23;;;;;;;5.50;5.10;;;;;;;15.43;72.34;100822.63;5083346;28;20697;-70
2021/06/03 04:29:51;;;;;;;5.40;5.00;;;;;;;15.46;72.43;100820.78;5085318;28;20267;-70
2021/06/03 04:32:16;;;;;;;5.87;5.37;;;;;;;15.45;72.52;100819.03;5085018;28;20210;-72
2021/06/03 04:34:44;;;;;;;5.27;4.80;;;;;;;15.42;72.42;100826.16;5084339;28;20781;-71
2021/06/03 04:37:10;;;;;;;6.63;6.07;;;;;;;15.37;72.85;100821.06;5084418;28;20231;-71
2021/06/03 04:39:36;;;;;;;5.97;5.47;;;;;;;15.28;73.52;100822.22;5084449;28;20302;-71
2021/06/03 04:42:02;;;;;;;5.90;5.50;;;;;;;15.26;73.30;100817.91;5084475;28;20210;-71
2021/06/03 04:44:28;;;;;;;6.07;5.67;;;;;;;15.25;73.62;100819.69;5083560;28;20258;-72
2021/06/03 04:46:53;;;;;;;6.30;5.80;;;;;;;15.33;73.48;100823.84;5084365;28;20318;-71
2021/06/03 04:49:19;;;;;;;6.13;5.63;;;;;;;15.35;73.88;100835.19;5084318;28;20886;-71
2021/06/03 04:51:47;;;;;;;6.83;6.30;;;;;;;15.38;73.74;100832.44;5084678;28;20207;-71
2021/06/03 04:54:13;;;;;;;6.13;5.73;;;;;;;15.47;73.17;100825.09;5084300;28;20749;-70
2021/06/03 04:56:39;;;;;;;6.70;6.20;;;;;;;15.46;73.55;100833.94;5083973;28;20222;-72
2021/06/03 04:59:05;;;;;;;6.73;6.33;;;;;;;15.49;73.59;100830.31;5083830;28;20647;-74
2021/06/03 05:01:31;;;;;;;5.70;5.20;;;;;;;15.65;73.56;100823.63;5083663;28;20306;-71
2021/06/03 05:03:57;;;;;;;5.83;5.43;;;;;;;15.71;73.31;100833.09;5083468;28;20231;-72
2021/06/03 05:06:23;;;;;;;6.37;5.77;;;;;;;15.73;73.74;100833.94;5083994;28;20334;-72
2021/06/03 05:08:50;;;;;;;6.30;5.80;;;;;;;15.80;73.40;100843.34;5083643;28;20207;-74
2021/06/03 05:11:16;;;;;;;7.47;6.67;;;;;;;15.87;73.59;100833.47;5084193;28;20976;-74
2021/06/03 05:13:42;;;;;;;6.50;6.07;;;;;;;15.98;73.15;100833.97;5083160;28;20532;-73
2021/06/03 05:16:08;;;;;;;6.33;5.80;;;;;;;16.11;72.45;100831.72;5084005;28;20214;-73
2021/06/03 05:18:34;;;;;;;7.13;6.63;;;;;;;16.21;71.95;100835.78;5083570;28;20339;-72
2021/06/03 05:21:00;;;;;;;6.00;5.60;;;;;;;16.28;72.57;100832.00;5083440;28;20294;-72
2021/06/03 05:23:26;;;;;;;6.97;6.57;;;;;;;16.37;72.17;100833.44;5083596;28;20262;-73
2021/06/03 05:25:54;;;;;;;6.50;6.00;;;;;;;16.50;72.54;100843.53;5082726;28;20656;-73
2021/06/03 05:28:20;;;;;;;6.20;5.70;;;;;;;16.62;71.99;100850.97;5083414;28;20239;-73
2021/06/03 05:30:46;;;;;;;7.00;6.50;;;;;;;16.70;70.53;100853.31;5084187;28;20272;-73
2021/06/03 05:33:12;;;;;;;7.17;6.30;;;;;;;16.76;70.74;100847.81;5082713;28;20235;-72
2021/06/03 05:35:38;;;;;;;6.80;6.30;;;;;;;16.86;71.13;100847.44;5082759;28;20207;-72
2021/06/03 05:38:04;;;;;;;7.93;7.33;;;;;;;16.95;71.60;100842.75;5083071;28;20199;-72
2021/06/03 05:40:31;;;;;;;6.60;6.20;;;;;;;16.97;72.01;100843.53;5082511;28;20701;-72
2021/06/03 05:42:59;;;;;;;7.10;6.60;;;;;;;17.09;71.20;100848.31;5082275;28;20289;-73
2021/06/03 05:45:25;;;;;;;7.10;6.60;;;;;;;17.19;70.54;100852.31;5082883;28;20227;-73
2021/06/03 05:47:52;;;;;;;6.67;6.27;;;;;;;17.25;71.26;100848.56;5082271;28;20226;-71
2021/06/03 05:50:20;;;;;;;8.00;7.40;;;;;;;17.34;70.97;100852.59;5082516;28;20692;-72
2021/06/03 05:52:46;;;;;;;6.00;5.67;;;;;;;17.35;71.69;100849.91;5082393;28;20481;-72
2021/06/03 05:55:15;;;;;;;6.93;6.43;;;;;;;17.34;71.79;100856.09;5083222;28;20242;-72
2021/06/03 05:57:42;;;;;;;6.63;6.23;;;;;;;17.36;71.78;100863.97;5082246;28;20696;-72
2021/06/03 06:00:12;;;;;;;9.80;6.70;;;;;;;17.33;72.13;100862.31;5082947;28;20204;-72
2021/06/03 06:02:47;;;;;;;6.77;6.23;;;;;;;17.39;72.25;100861.22;5082341;28;20617;-73
2021/06/03 06:07:59;;;;;;;6.87;6.47;;;;;;;17.37;72.11;100853.34;5081454;28;20217;-73
2021/06/03 06:10:25;;;;;;;6.83;6.33;;;;;;;17.36;72.37;100862.19;5082674;28;20211;-73
2021/06/03 06:12:51;;;;;;;7.20;6.70;;;;;;;17.38;72.69;100870.03;5082509;28;20512;-73
2021/06/03 06:15:18;;;;;;;6.87;6.10;;;;;;;17.43;72.81;100871.56;5081550;28;20685;-74
2021/06/03 06:17:44;;;;;;;6.43;5.97;;;;;;;17.54;72.73;100862.34;5082118;28;20246;-73
2021/06/03 06:20:12;;;;;;;6.87;6.27;;;;;;;17.64;72.75;100861.94;5082002;28;20201;-73
2021/06/03 06:22:38;;;;;;;6.00;5.60;;;;;;;17.68;72.57;100865.31;5081270;28;20239;-73
2021/06/03 06:25:05;;;;;;;6.40;6.00;;;;;;;17.65;72.93;100868.06;5081573;28;20203;-73
2021/06/03 06:27:31;;;;;;;6.80;6.30;;;;;;;17.70;72.56;100876.66;5082493;28;20258;-71
2021/06/03 06:29:57;;;;;;;6.47;5.87;;;;;;;17.80;72.76;100880.63;5080950;28;20290;-73
2021/06/03 06:32:24;;;;;;;5.70;5.30;;;;;;;17.91;72.83;100887.25;5081592;28;20211;-74
2021/06/03 06:34:50;;;;;;;6.33;5.67;;;;;;;17.94;73.04;100888.00;5081673;28;20471;-73
2021/06/03 06:37:16;;;;;;;6.97;5.70;;;;;;;17.98;73.27;100888.72;5080286;28;20214;-72
2021/06/03 06:39:42;;;;;;;5.80;5.40;;;;;;;18.06;73.10;100886.63;5078674;28;20212;-74
2021/06/03 06:42:09;;;;;;;5.97;5.47;;;;;;;18.27;72.63;100887.44;5081505;28;20621;-73
2021/06/03 06:44:34;;;;;;;6.67;4.93;;;;;;;18.39;72.60;100888.69;5080539;28;20265;-73
2021/06/03 06:47:01;;;;;;;6.47;5.87;;;;;;;18.42;70.66;100893.88;5081247;28;20235;-73
2021/06/03 06:49:28;;;;;;;5.47;5.07;;;;;;;18.50;72.61;100886.44;5081268;28;20651;-72
2021/06/03 06:51:54;;;;;;;5.07;4.77;;;;;;;18.53;72.48;100888.09;5081660;28;20231;-72
2021/06/03 06:54:20;;;;;;;5.23;4.90;;;;;;;18.59;72.78;100886.03;5081618;28;20265;-75
2021/06/03 06:56:46;;;;;;;5.10;4.80;;;;;;;18.71;72.74;100896.97;5081412;28;20203;-75
2021/06/03 06:59:12;;;;;;;5.60;5.07;;;;;;;18.77;72.88;100887.00;5081258;28;20681;-73
2021/06/03 07:01:38;;;;;;;7.03;5.37;;;;;;;18.90;71.84;100889.09;5081493;28;20212;-72
2021/06/03 07:04:04;;;;;;;5.87;5.47;;;;;;;18.99;73.36;100891.31;5081681;28;20314;-75
2021/06/03 07:06:31;;;;;;;5.20;4.73;;;;;;;19.03;72.04;100890.25;5082167;28;20591;-72
2021/06/03 07:08:57;;;;;;;5.47;5.17;;;;;;;19.15;73.00;100894.09;5081961;28;20231;-76
2021/06/03 07:11:24;;;;;;;4.60;4.30;;;;;;;19.32;69.08;100891.47;5081713;28;20305;-76
2021/06/03 07:13:50;;;;;;;5.57;3.80;;;;;;;19.45;62.74;100892.59;5080473;28;20270;-76
2021/06/03 07:16:17;;;;;;;6.60;4.67;;;;;;;19.65;68.12;100890.78;5082268;28;20625;-75
2021/06/03 07:18:43;;;;;;;4.23;3.87;;;;;;;19.78;67.97;100881.31;5080625;28;20208;-74
2021/06/03 07:21:09;;;;;;;4.50;4.20;;;;;;;19.87;65.18;100885.28;5080928;28;20231;-73
2021/06/03 07:23:36;;;;;;;4.23;3.90;;;;;;;19.96;65.83;100884.84;5081568;28;20216;-73
2021/06/03 07:26:02;;;;;;;4.17;3.87;;;;;;;20.09;66.82;100884.19;5081831;28;20259;-73
2021/06/03 07:28:29;;;;;;;4.33;4.07;;;;;;;20.16;67.99;100890.91;5080256;28;20250;-72
2021/06/03 07:30:55;;;;;;;4.50;4.13;;;;;;;20.21;68.29;100884.41;5082064;28;20204;-74
2021/06/03 07:33:21;;;;;;;4.30;4.00;;;;;;;20.29;65.37;100884.00;5079941;28;20303;-73
2021/06/03 07:35:47;;;;;;;4.00;3.70;;;;;;;20.40;62.88;100883.47;5081893;28;20554;-73
2021/06/03 07:38:14;;;;;;;4.30;4.00;;;;;;;20.44;67.26;100892.97;5081693;28;20199;-73
2021/06/03 07:40:41;;;;;;;3.80;3.60;;;;;;;20.51;64.66;100889.03;5081987;28;20212;-74
2021/06/03 07:43:10;;;;;;;4.77;3.73;;;;;;;20.64;65.64;100891.94;5080528;28;20706;-74
2021/06/03 07:45:37;;;;;;;4.03;3.77;;;;;;;20.59;62.97;100881.56;5081481;28;20275;-73
2021/06/03 07:48:04;;;;;;;4.23;3.93;;;;;;;20.76;62.33;100888.59;5082174;28;20261;-73
2021/06/03 07:50:33;;;;;;;4.13;3.10;;;;;;;20.86;60.50;100883.66;5080696;28;20239;-74
2021/06/03 07:53:00;;;;;;;4.07;3.73;;;;;;;21.06;61.57;100884.34;5080903;28;20744;-73
2021/06/03 07:55:26;;;;;;;3.60;3.30;;;;;;;21.10;59.27;100880.59;5080656;28;20232;-73
2021/06/03 07:57:57;;;;;;;3.80;3.57;;;;;;;21.19;62.77;100880.94;5083649;28;20215;-73
2021/06/03 08:00:25;;;;;;;3.87;3.53;;;;;;;21.28;56.89;100882.19;5085061;28;20266;-73
2021/06/03 08:02:51;;;;;;;4.23;3.93;;;;;;;21.36;59.29;100879.97;5084380;28;20239;-73
2021/06/03 08:05:19;;;;;;;3.50;3.30;;;;;;;21.50;61.43;100886.31;5084355;28;20227;-71
2021/06/03 08:07:45;;;;;;;3.63;3.33;;;;;;;21.58;61.66;100889.38;5084402;28;20563;-71
2021/06/03 08:10:14;;;;;;;3.80;3.60;;;;;;;21.62;63.68;100885.59;5085008;28;20277;-73
2021/06/03 08:12:40;;;;;;;3.63;3.30;;;;;;;21.69;58.10;100884.31;5084847;28;20262;-72
2021/06/03 08:15:10;;;;;;;3.80;3.50;;;;;;;21.79;60.71;100887.28;5084206;28;20667;-73
2021/06/03 08:17:37;;;;;;;3.33;3.00;;;;;;;21.83;59.98;100887.97;5084111;28;20216;-72
2021/06/03 08:20:05;;;;;;;3.90;3.60;;;;;;;21.89;58.89;100884.94;5083771;28;20223;-71
2021/06/03 08:22:30;;;;;;;3.83;3.53;;;;;;;21.94;59.38;100889.06;5084001;28;20219;-71
2021/06/03 08:24:56;;;;;;;3.53;3.33;;;;;;;22.02;62.50;100893.88;5083811;28;20794;-69
2021/06/03 08:27:22;;;;;;;3.37;3.07;;;;;;;21.98;60.98;100887.03;5083871;28;20257;-71
2021/06/03 08:29:48;;;;;;;3.43;3.10;;;;;;;21.99;59.95;100886.09;5084857;28;20204;-75
2021/06/03 08:32:15;;;;;;;3.93;3.63;;;;;;;22.11;63.01;100889.84;5083955;28;20200;-71
2021/06/03 08:34:41;;;;;;;4.83;2.93;;;;;;;22.23;60.18;100890.91;5084399;28;20975;-71
2021/06/03 08:37:07;;;;;;;3.70;3.40;;;;;;;22.24;60.07;100892.59;5083321;28;20254;-71
2021/06/03 08:39:33;;;;;;;3.80;3.23;;;;;;;22.26;57.54;100886.28;5084049;28;20593;-71
2021/06/03 08:41:59;;;;;;;3.30;3.10;;;;;;;22.34;55.90;100896.47;5084534;28;20208;-74
2021/06/03 08:44:28;;;;;;;3.63;3.33;;;;;;;22.33;57.26;100895.59;5083591;28;20735;-73
2021/06/03 08:46:54;;;;;;;3.87;3.47;;;;;;;22.36;56.72;100895.41;5084376;28;20222;-73
2021/06/03 08:49:21;;;;;;;3.67;3.37;;;;;;;22.50;57.30;100901.69;5083835;28;20747;-71
2021/06/03 08:51:48;;;;;;;3.30;3.10;;;;;;;22.47;56.90;100901.88;5084145;28;20232;-75
2021/06/03 08:54:14;;;;;;;3.43;3.23;;;;;;;22.59;56.11;100896.63;5084373;28;20247;-74
2021/06/03 08:56:40;;;;;;;3.63;3.33;;;;;;;22.64;57.79;100904.34;5083737;28;20674;-74
2021/06/03 08:59:06;;;;;;;3.37;3.17;;;;;;;22.70;57.07;100906.63;5084102;28;20566;-74
2021/06/03 09:01:32;;;;;;;3.37;3.17;;;;;;;22.84;56.43;100905.78;5083662;28;20200;-73
2021/06/03 09:03:58;;;;;;;3.27;2.97;;;;;;;22.84;56.10;100900.44;5082995;28;20409;-74
2021/06/03 09:06:26;;;;;;;3.83;3.30;;;;;;;22.85;53.81;100903.94;5083360;28;20230;-74
2021/06/03 09:08:57;;;;;;;3.70;3.40;;;;;;;22.94;59.32;100903.38;5083484;28;20208;-73
2021/06/03 09:11:23;;;;;;;3.70;3.40;;;;;;;23.08;56.42;100899.88;5083943;28;20212;-73
2021/06/03 09:13:51;;;;;;;4.70;3.50;;;;;;;23.16;56.23;100903.75;5083299;28;20232;-73
2021/06/03 09:16:23;;;;;;;4.57;3.30;;;;;;;23.19;51.45;100900.00;5083762;28;20204;-73
2021/06/03 09:18:53;;;;;;;3.50;3.30;;;;;;;23.35;55.14;100898.09;5083585;28;20200;-73
2021/06/03 09:21:22;;;;;;;3.73;3.40;;;;;;;23.49;58.14;100904.31;5092267;28;20232;-73
2021/06/03 09:23:56;;;;;;;3.70;3.50;;;;;;;23.53;56.06;100898.69;5096033;28;20233;-72
2021/06/03 09:26:24;;;;;;;3.37;3.13;;;;;;;23.59;52.73;100897.44;5092654;28;20246;-72
2021/06/03 09:28:51;;;;;;;4.50;3.10;;;;;;;23.63;52.82;100901.59;5085542;28;20226;-73
2021/06/03 09:31:20;;;;;;;3.67;3.30;;;;;;;23.57;51.11;100896.69;5083253;28;20673;-74
2021/06/03 09:33:53;;;;;;;3.67;2.73;;;;;;;23.57;49.38;100889.53;5083110;28;20225;-74
2021/06/03 09:36:25;;;;;;;3.63;3.20;;;;;;;23.61;52.83;100898.19;5084060;28;20658;-74
2021/06/03 09:39:08;;;;;;;3.50;3.30;;;;;;;23.66;51.32;100895.19;5083216;28;20624;-73
2021/06/03 09:41:37;;;;;;;4.90;3.20;;;;;;;23.87;51.32;100901.78;5082327;28;20619;-71
2021/06/03 09:44:07;;;;;;;3.53;3.23;;;;;;;24.02;51.41;100893.72;5080902;28;20748;-72
2021/06/03 09:46:38;;;;;;;3.60;3.23;;;;;;;24.14;50.28;100900.88;5082651;28;20525;-72
2021/06/03 09:49:05;;;;;;;3.87;3.57;;;;;;;24.14;49.85;100898.19;5083259;28;20258;-74
2021/06/03 09:51:36;;;;;;;3.43;3.00;;;;;;;24.27;51.44;100899.06;5083247;28;20432;-73
2021/06/03 09:54:06;;;;;;;3.60;3.30;;;;;;;24.46;48.45;100903.13;5083046;28;20216;-73
2021/06/03 09:56:34;;;;;;;5.47;3.83;;;;;;;24.49;47.59;100901.09;5082772;28;20265;-73
2021/06/03 09:59:01;;;;;;;3.30;3.07;;;;;;;24.60;48.42;100902.19;5083115;28;20241;-72
2021/06/03 10:01:58;;;;;;;3.93;3.47;;;;;;;24.67;47.66;100896.31;5083865;28;20712;-72
2021/06/03 10:04:37;;;;;;;3.27;3.07;;;;;;;24.77;48.97;100901.84;5082418;28;20262;-74
2021/06/03 10:07:12;;;;;;;3.90;3.60;;;;;;;24.90;47.47;100901.84;5082934;28;20692;-74
2021/06/03 10:09:57;;;;;;;3.37;3.07;;;;;;;24.99;46.75;100901.16;5082143;28;20216;-74
2021/06/03 10:12:31;;;;;;;3.87;3.20;;;;;;;25.13;49.59;100903.69;5081737;28;20215;-74
2021/06/03 10:14:59;;;;;;;3.70;3.10;;;;;;;25.29;45.26;100907.94;5082203;28;20232;-73
2021/06/03 10:17:27;;;;;;;3.43;3.17;;;;;;;25.35;45.08;100900.34;5082900;28;20243;-75
2021/06/03 10:19:56;;;;;;;3.57;3.17;;;;;;;25.41;48.02;100908.84;5082071;28;20295;-72
2021/06/03 10:22:24;;;;;;;3.63;3.33;;;;;;;25.39;48.92;100902.75;5082948;28;20289;-75
2021/06/03 10:24:57;;;;;;;4.67;3.10;;;;;;;25.50;48.19;100905.50;5083368;28;20219;-74
2021/06/03 10:27:25;;;;;;;3.00;2.80;;;;;;;25.48;47.60;100896.75;5081998;28;20729;-74
2021/06/03 10:29:53;;;;;;;5.53;3.33;;;;;;;25.56;47.08;100900.53;5081609;28;20227;-75
2021/06/03 10:32:22;;;;;;;3.57;3.20;;;;;;;25.66;45.71;100892.69;5082049;28;20295;-74
2021/06/03 10:34:50;;;;;;;3.60;3.30;;;;;;;25.66;48.76;100898.03;5082628;28;20471;-74
2021/06/03 10:37:18;;;;;;;4.10;3.80;;;;;;;25.74;51.16;100900.97;5082223;28;20234;-74
2021/06/03 10:39:45;;;;;;;3.57;3.37;;;;;;;25.81;47.93;100892.47;5082408;28;20670;-73
2021/06/03 10:42:16;;;;;;;3.60;3.33;;;;;;;25.82;45.98;100896.88;5082351;28;20504;-73
2021/06/03 10:44:43;;;;;;;3.17;2.97;;;;;;;25.84;46.25;100889.59;5082299;28;20263;-74
2021/06/03 10:47:10;;;;;;;3.50;3.20;;;;;;;25.92;43.25;100895.22;5082889;28;20289;-73
2021/06/03 10:49:37;;;;;;;3.23;3.03;;;;;;;25.93;45.16;100897.81;5082161;28;20227;-74
2021/06/03 10:52:07;;;;;;;3.33;3.03;;;;;;;25.98;45.58;100888.56;5081193;28;20231;-73
2021/06/03 10:54:45;;;;;;;4.03;3.27;;;;;;;26.07;44.52;100894.06;5082276;28;20698;-73
2021/06/03 10:57:12;;;;;;;3.53;3.33;;;;;;;26.15;44.45;100893.47;5081819;28;20293;-73
2021/06/03 10:59:40;;;;;;;4.17;3.70;;;;;;;26.21;44.31;100894.84;5082636;28;20208;-73
2021/06/03 11:02:07;;;;;;;3.77;3.50;;;;;;;26.25;44.07;100888.28;5082322;28;20201;-73
2021/06/03 11:04:35;;;;;;;3.87;3.57;;;;;;;26.33;44.13;100891.19;5082428;28;20242;-73
2021/06/03 11:07:03;;;;;;;4.60;3.47;;;;;;;26.37;43.86;100887.31;5080447;28;20267;-73
2021/06/03 11:09:31;;;;;;;3.70;3.40;;;;;;;26.44;44.57;100883.19;5080664;28;20203;-74
2021/06/03 11:12:19;;;;;;;5.33;3.60;;;;;;;26.52;42.70;100874.50;5081154;28;20701;-73
2021/06/03 11:15:13;;;;;;;3.13;2.87;;;;;;;26.64;43.29;100875.41;5081176;28;20533;-73
2021/06/03 11:17:49;;;;;;;3.50;3.20;;;;;;;26.78;47.89;100876.97;5082239;28;20716;-73
2021/06/03 11:20:15;;;;;;;3.73;3.40;;;;;;;26.92;47.26;100872.22;5081935;28;20253;-74
2021/06/03 11:22:41;;;;;;;3.17;2.97;;;;;;;27.14;47.14;100875.84;5081595;28;20334;-74
2021/06/03 11:25:07;;;;;;;3.23;3.03;;;;;;;27.33;46.01;100876.06;5082127;28;20200;-73
2021/06/03 11:27:39;;;;;;;3.37;3.10;;;;;;;27.38;45.30;100875.66;5080993;28;20260;-73